createdAt,value
2019-01-07T00:00:32.188Z,42.02
2019-01-07T00:01:31.926Z,42.11
2019-01-07T00:02:32.233Z,42.11
2019-01-07T00:03:32.131Z,42.11
2019-01-07T00:04:32.117Z,42.21
2019-01-07T00:05:32.100Z,42.11
2019-01-07T00:06:32.088Z,42.02
2019-01-07T00:07:32.075Z,42.11
2019-01-07T00:08:32.054Z,42.21
2019-01-07T00:09:32.027Z,41.83
2019-01-07T00:10:32.012Z,42.21
2019-01-07T00:11:31.988Z,41.74
2019-01-07T00:12:31.971Z,41.83
2019-01-07T00:13:31.717Z,41.83
2019-01-07T00:14:31.941Z,41.83
2019-01-07T00:15:31.924Z,41.83
2019-01-07T00:16:31.904Z,41.36
2019-01-07T00:17:31.887Z,41.55
2019-01-07T00:18:31.867Z,41.83
2019-01-07T00:19:31.854Z,41.55
2019-01-07T00:20:31.588Z,41.36
2019-01-07T00:21:31.817Z,40.98
2019-01-07T00:22:31.801Z,40.79
2019-01-07T00:23:31.782Z,40.41
2019-01-07T00:24:31.766Z,40.79
2019-01-07T00:25:31.752Z,40.6
2019-01-07T00:26:31.729Z,40.6
2019-01-07T00:27:31.713Z,40.6
2019-01-07T00:28:31.695Z,40.6
2019-01-07T00:29:31.679Z,40.32
2019-01-07T00:30:31.660Z,40.41
2019-01-07T00:31:31.639Z,40.32
2019-01-07T00:32:31.627Z,40.13
2019-01-07T00:33:31.620Z,39.94
2019-01-07T00:34:31.586Z,40.03
2019-01-07T00:35:31.574Z,39.94
2019-01-07T00:36:31.556Z,39.75
2019-01-07T00:37:31.535Z,40.03
2019-01-07T00:38:31.527Z,39.75
2019-01-07T00:39:31.506Z,39.75
2019-01-07T00:40:31.484Z,39.94
2019-01-07T00:41:31.471Z,39.84
2019-01-07T00:42:31.447Z,40.13
2019-01-07T00:43:31.438Z,40.13
2019-01-07T00:44:31.418Z,40.22
2019-01-07T00:45:31.403Z,40.13
2019-01-07T00:46:31.380Z,40.13
2019-01-07T00:47:31.367Z,40.13
2019-01-07T00:48:31.348Z,40.03
2019-01-07T00:49:31.351Z,40.13
2019-01-07T00:50:31.311Z,39.94
2019-01-07T00:51:31.047Z,39.56
2019-01-07T00:52:31.278Z,39.56
2019-01-07T00:53:31.257Z,39.28
2019-01-07T00:54:31.251Z,39.37
2019-01-07T00:55:31.226Z,39.28
2019-01-07T00:56:31.204Z,39.18
2019-01-07T00:57:31.188Z,39.09
2019-01-07T00:58:31.178Z,38.81
2019-01-07T00:59:31.155Z,38.71
2019-01-07T01:00:31.140Z,38.62
2019-01-07T01:01:31.121Z,38.62
2019-01-07T01:02:31.103Z,38.62
2019-01-07T01:03:31.087Z,38.62
2019-01-07T01:04:31.073Z,38.33
2019-01-07T01:05:31.051Z,38.33
2019-01-07T01:06:31.034Z,38.24
2019-01-07T01:07:31.015Z,38.33
2019-01-07T01:08:30.998Z,38.33
2019-01-07T01:09:30.984Z,38.14
2019-01-07T01:10:30.962Z,38.05
2019-01-07T01:11:30.946Z,37.86
2019-01-07T01:12:30.929Z,37.95
2019-01-07T01:13:30.911Z,37.57
2019-01-07T01:14:30.901Z,37.48
2019-01-07T01:15:30.878Z,37.48
2019-01-07T01:16:30.858Z,37.48
2019-01-07T01:17:30.847Z,37.38
2019-01-07T01:18:30.825Z,36.91
2019-01-07T01:19:30.560Z,37.1
2019-01-07T01:20:30.789Z,36.82
2019-01-07T01:21:30.770Z,37.01
2019-01-07T01:22:30.756Z,36.63
2019-01-07T01:23:30.491Z,36.72
2019-01-07T01:24:30.721Z,36.91
2019-01-07T01:25:30.703Z,36.55
2019-01-07T01:26:30.684Z,36.35
2019-01-07T01:27:30.668Z,36.54
2019-01-07T01:28:30.655Z,36.54
2019-01-07T01:29:30.634Z,36.15
2019-01-07T01:30:30.614Z,36.25
2019-01-07T01:31:30.603Z,36.25
2019-01-07T01:32:30.332Z,36.06
2019-01-07T01:33:30.563Z,35.68
2019-01-07T01:34:30.551Z,35.87
2019-01-07T01:35:30.528Z,35.89
2019-01-07T01:36:30.519Z,35.39
2019-01-07T01:37:30.494Z,35.39
2019-01-07T01:38:30.474Z,35.02
2019-01-07T01:39:30.459Z,35.13
2019-01-07T01:40:30.444Z,34.74
2019-01-07T01:41:30.424Z,34.83
2019-01-07T01:42:30.413Z,34.47
2019-01-07T01:43:30.388Z,34.45
2019-01-07T01:44:30.373Z,34.09
2019-01-07T01:45:30.357Z,34.07
2019-01-07T01:46:30.337Z,33.6
2019-01-07T01:47:30.323Z,33.6
2019-01-07T01:48:30.304Z,33.6
2019-01-07T01:49:30.286Z,33.43
2019-01-07T01:50:30.267Z,33.33
2019-01-07T01:51:30.251Z,33.04
2019-01-07T01:52:30.237Z,32.76
2019-01-07T01:53:29.968Z,32.57
2019-01-07T01:54:30.199Z,32.57
2019-01-07T01:55:30.180Z,32.57
2019-01-07T01:56:30.165Z,32.29
2019-01-07T01:57:29.895Z,32.39
2019-01-07T01:58:30.131Z,31.91
2019-01-07T01:59:30.109Z,31.53
2019-01-07T02:00:30.097Z,31.72
2019-01-07T02:01:30.080Z,31.82
2019-01-07T02:02:29.812Z,31.63
2019-01-07T02:03:30.043Z,31.25
2019-01-07T02:04:30.026Z,31.25
2019-01-07T02:05:30.009Z,31.25
2019-01-07T02:06:29.993Z,30.87
2019-01-07T02:07:29.973Z,30.87
2019-01-07T02:08:29.961Z,30.87
2019-01-07T02:09:29.943Z,30.49
2019-01-07T02:10:29.923Z,30.77
2019-01-07T02:11:29.910Z,30.77
2019-01-07T02:12:29.890Z,30.58
2019-01-07T02:13:29.879Z,30.58
2019-01-07T02:14:29.607Z,30.3
2019-01-07T02:15:29.589Z,30.68
2019-01-07T02:16:29.570Z,30.58
2019-01-07T02:17:29.809Z,30.49
2019-01-07T02:18:29.859Z,30.49
2019-01-07T02:19:29.774Z,30.21
2019-01-07T02:20:29.747Z,30.3
2019-01-07T02:21:29.483Z,29.64
2019-01-07T02:22:29.716Z,29.64
2019-01-07T02:23:29.713Z,29.73
2019-01-07T02:24:29.684Z,30.02
2019-01-07T02:25:29.420Z,29.45
2019-01-07T02:26:29.646Z,29.64
2019-01-07T02:27:29.630Z,29.54
2019-01-07T02:28:29.364Z,29.54
2019-01-07T02:29:29.597Z,29.64
2019-01-07T02:30:29.591Z,29.64
2019-01-07T02:31:29.562Z,29.64
2019-01-07T02:32:29.554Z,29.26
2019-01-07T02:33:29.530Z,29.35
2019-01-07T02:34:29.507Z,29.26
2019-01-07T02:35:29.491Z,29.16
2019-01-07T02:36:29.478Z,29.26
2019-01-07T02:37:29.460Z,29.26
2019-01-07T02:38:29.441Z,28.97
2019-01-07T02:39:29.428Z,29.16
2019-01-07T02:40:29.404Z,28.97
2019-01-07T02:41:29.461Z,28.97
2019-01-07T02:42:29.387Z,28.97
2019-01-07T02:43:29.355Z,28.88
2019-01-07T02:44:29.088Z,28.13
2019-01-07T02:45:29.324Z,28.41
2019-01-07T02:46:29.306Z,28.41
2019-01-07T02:47:29.288Z,28.41
2019-01-07T02:48:29.276Z,28.59
2019-01-07T02:49:29.254Z,28.59
2019-01-07T02:50:29.238Z,28.5
2019-01-07T02:51:29.217Z,28.78
2019-01-07T02:52:29.291Z,28.22
2019-01-07T02:53:29.189Z,28.69
2019-01-07T02:54:29.167Z,28.88
2019-01-07T02:55:29.151Z,28.59
2019-01-07T02:56:29.135Z,28.78
2019-01-07T02:57:29.112Z,28.69
2019-01-07T02:58:29.106Z,28.31
2019-01-07T02:59:29.079Z,27.94
2019-01-07T03:00:29.066Z,28.03
2019-01-07T03:01:28.803Z,28.03
2019-01-07T03:02:29.034Z,28.03
2019-01-07T03:03:29.013Z,28.03
2019-01-07T03:04:28.997Z,28.31
2019-01-07T03:05:28.981Z,28.31
2019-01-07T03:06:28.964Z,28.22
2019-01-07T03:07:28.948Z,28.31
2019-01-07T03:08:29.018Z,28.03
2019-01-07T03:09:28.908Z,28.31
2019-01-07T03:10:28.903Z,28.31
2019-01-07T03:11:28.878Z,28.22
2019-01-07T03:12:28.857Z,28.31
2019-01-07T03:13:28.842Z,28.31
2019-01-07T03:14:28.835Z,28.41
2019-01-07T03:15:28.828Z,28.41
2019-01-07T03:16:28.798Z,28.13
2019-01-07T03:17:28.779Z,28.31
2019-01-07T03:18:28.758Z,28.31
2019-01-07T03:19:28.742Z,27.94
2019-01-07T03:20:28.471Z,27.94
2019-01-07T03:21:28.703Z,28.5
2019-01-07T03:22:28.690Z,28.5
2019-01-07T03:23:28.678Z,27.94
2019-01-07T03:24:28.657Z,28.13
2019-01-07T03:25:28.644Z,27.94
2019-01-07T03:26:28.376Z,27.94
2019-01-07T03:27:28.608Z,28.13
2019-01-07T03:28:28.638Z,27.94
2019-01-07T03:29:28.572Z,28.03
2019-01-07T03:30:28.559Z,28.69
2019-01-07T03:31:28.602Z,28.59
2019-01-07T03:32:28.610Z,28.69
2019-01-07T03:33:28.502Z,28.78
2019-01-07T03:34:28.487Z,28.69
2019-01-07T03:35:28.466Z,28.69
2019-01-07T03:36:28.455Z,28.41
2019-01-07T03:37:28.436Z,28.59
2019-01-07T03:38:28.416Z,28.5
2019-01-07T03:39:28.399Z,28.59
2019-01-07T03:40:28.382Z,28.97
2019-01-07T03:41:28.369Z,28.88
2019-01-07T03:42:28.345Z,28.97
2019-01-07T03:43:28.335Z,28.97
2019-01-07T03:44:28.319Z,28.88
2019-01-07T03:45:28.298Z,28.88
2019-01-07T03:46:28.282Z,28.88
2019-01-07T03:47:28.260Z,29.07
2019-01-07T03:48:28.258Z,29.07
2019-01-07T03:49:28.230Z,29.07
2019-01-07T03:50:28.211Z,29.35
2019-01-07T03:51:28.208Z,29.35
2019-01-07T03:52:28.178Z,29.07
2019-01-07T03:53:28.162Z,29.45
2019-01-07T03:54:28.141Z,29.54
2019-01-07T03:55:28.123Z,29.54
2019-01-07T03:56:28.108Z,29.73
2019-01-07T03:57:28.096Z,29.64
2019-01-07T03:58:28.081Z,29.54
2019-01-07T03:59:28.057Z,29.64
2019-01-07T04:00:28.044Z,29.54
2019-01-07T04:01:28.073Z,29.73
2019-01-07T04:02:28.003Z,29.54
2019-01-07T04:03:27.989Z,29.45
2019-01-07T04:04:27.972Z,29.54
2019-01-07T04:05:27.959Z,29.54
2019-01-07T04:06:27.943Z,29.54
2019-01-07T04:07:27.921Z,29.54
2019-01-07T04:08:27.904Z,29.45
2019-01-07T04:09:27.882Z,29.45
2019-01-07T04:10:27.872Z,29.83
2019-01-07T04:11:27.850Z,30.02
2019-01-07T04:12:27.838Z,29.54
2019-01-07T04:13:27.816Z,29.92
2019-01-07T04:14:27.801Z,29.73
2019-01-07T04:15:27.782Z,29.73
2019-01-07T04:16:27.772Z,30.02
2019-01-07T04:17:27.747Z,29.83
2019-01-07T04:18:27.732Z,29.92
2019-01-07T04:19:27.733Z,29.73
2019-01-07T04:20:27.699Z,29.83
2019-01-07T04:21:27.678Z,29.83
2019-01-07T04:22:27.660Z,29.92
2019-01-07T04:23:27.647Z,29.83
2019-01-07T04:24:27.629Z,30.3
2019-01-07T04:25:27.619Z,30.49
2019-01-07T04:26:27.600Z,30.4
2019-01-07T04:27:27.577Z,30.49
2019-01-07T04:28:27.339Z,30.49
2019-01-07T04:29:27.545Z,30.87
2019-01-07T04:30:27.528Z,30.77
2019-01-07T04:31:27.512Z,30.58
2019-01-07T04:32:27.494Z,31.06
2019-01-07T04:33:27.494Z,30.96
2019-01-07T04:34:27.457Z,31.25
2019-01-07T04:35:27.443Z,31.53
2019-01-07T04:36:27.443Z,32.01
2019-01-07T04:37:27.406Z,32.01
2019-01-07T04:38:27.395Z,32.39
2019-01-07T04:39:27.417Z,32.76
2019-01-07T04:40:27.360Z,32.86
2019-01-07T04:41:27.340Z,33.14
2019-01-07T04:42:27.073Z,33.33
2019-01-07T04:43:27.305Z,33.43
2019-01-07T04:44:27.861Z,33.9
2019-01-07T04:45:27.270Z,33.71
2019-01-07T04:46:27.270Z,33.71
2019-01-07T04:47:26.987Z,34.09
2019-01-07T04:48:27.218Z,34.47
2019-01-07T04:49:27.198Z,34.28
2019-01-07T04:50:27.190Z,34.94
2019-01-07T04:51:27.179Z,34.66
2019-01-07T04:52:27.153Z,34.66
2019-01-07T04:53:27.128Z,34.94
2019-01-07T04:54:27.114Z,34.75
2019-01-07T04:55:27.135Z,35.13
2019-01-07T04:56:27.081Z,35.03
2019-01-07T04:57:27.059Z,35.13
2019-01-07T04:58:27.046Z,35.13
2019-01-07T04:59:27.027Z,34.94
2019-01-07T05:00:27.010Z,35.13
2019-01-07T05:01:26.991Z,34.94
2019-01-07T05:02:26.986Z,35.32
2019-01-07T05:03:26.960Z,35.32
2019-01-07T05:04:26.941Z,35.6
2019-01-07T05:05:26.927Z,35.6
2019-01-07T05:06:27.015Z,35.51
2019-01-07T05:07:26.894Z,35.6
2019-01-07T05:08:26.963Z,35.98
2019-01-07T05:09:26.874Z,36.08
2019-01-07T05:10:26.838Z,36.36
2019-01-07T05:11:26.817Z,36.17
2019-01-07T05:12:26.799Z,36.27
2019-01-07T05:13:26.864Z,36.27
2019-01-07T05:14:26.772Z,36.27
2019-01-07T05:15:26.749Z,36.35
2019-01-07T05:16:26.735Z,36.27
2019-01-07T05:17:26.473Z,36.17
2019-01-07T05:18:26.700Z,36.36
2019-01-07T05:19:26.690Z,36.17
2019-01-07T05:20:26.668Z,36.27
2019-01-07T05:21:26.652Z,36.36
2019-01-07T05:22:26.641Z,36.46
2019-01-07T05:23:26.614Z,36.27
2019-01-07T05:24:26.597Z,36.36
2019-01-07T05:25:26.578Z,36.27
2019-01-07T05:26:26.562Z,36.17
2019-01-07T05:27:26.546Z,36.08
2019-01-07T05:28:26.526Z,35.89
2019-01-07T05:29:26.507Z,35.89
2019-01-07T05:30:26.492Z,35.79
2019-01-07T05:31:26.483Z,35.98
2019-01-07T05:32:27.111Z,36.08
2019-01-07T05:33:26.194Z,36.17
2019-01-07T05:34:26.176Z,36.17
2019-01-07T05:35:26.414Z,36.08
2019-01-07T05:36:26.387Z,36.08
2019-01-07T05:37:26.372Z,36.06
2019-01-07T05:38:26.371Z,36.08
2019-01-07T05:39:26.344Z,36.08
2019-01-07T05:40:26.319Z,36.08
2019-01-07T05:41:26.304Z,36.17
2019-01-07T05:42:26.302Z,35.98
2019-01-07T05:43:26.266Z,36.08
2019-01-07T05:44:26.250Z,36.27
2019-01-07T05:45:25.984Z,36.36
2019-01-07T05:46:26.219Z,36.36
2019-01-07T05:47:26.199Z,36.17
2019-01-07T05:48:26.180Z,36.46
2019-01-07T05:49:26.163Z,36.36
2019-01-07T05:50:26.143Z,36.27
2019-01-07T05:51:26.127Z,35.98
2019-01-07T05:52:26.110Z,36.08
2019-01-07T05:53:26.101Z,35.79
2019-01-07T05:54:26.079Z,35.79
2019-01-07T05:55:26.059Z,35.98
2019-01-07T05:56:26.044Z,35.98
2019-01-07T05:57:26.025Z,35.98
2019-01-07T05:58:26.008Z,36.08
2019-01-07T05:59:25.754Z,36.27
2019-01-07T06:00:25.971Z,36.36
2019-01-07T06:01:25.951Z,36.27
2019-01-07T06:02:25.935Z,36.55
2019-01-07T06:03:25.921Z,36.25
2019-01-07T06:04:25.918Z,36.44
2019-01-07T06:05:25.886Z,36.55
2019-01-07T06:06:25.870Z,36.93
2019-01-07T06:07:25.846Z,37.1
2019-01-07T06:08:25.833Z,36.72
2019-01-07T06:09:25.823Z,36.91
2019-01-07T06:10:25.796Z,36.63
2019-01-07T06:11:25.780Z,37.19
2019-01-07T06:12:25.765Z,37.67
2019-01-07T06:13:25.744Z,37.57
2019-01-07T06:14:25.729Z,37.38
2019-01-07T06:15:25.710Z,37.48
2019-01-07T06:16:25.695Z,37.76
2019-01-07T06:17:25.682Z,37.95
2019-01-07T06:18:25.667Z,38.05
2019-01-07T06:19:25.643Z,37.76
2019-01-07T06:20:25.626Z,37.95
2019-01-07T06:21:25.607Z,38.24
2019-01-07T06:22:25.589Z,38.05
2019-01-07T06:23:25.573Z,38.05
2019-01-07T06:24:25.553Z,38.24
2019-01-07T06:25:25.536Z,38.43
2019-01-07T06:26:25.518Z,38.24
2019-01-07T06:27:25.500Z,38.05
2019-01-07T06:28:25.483Z,38.05
2019-01-07T06:29:25.465Z,38.05
2019-01-07T06:30:25.448Z,38.14
2019-01-07T06:31:25.194Z,37.86
2019-01-07T06:32:25.168Z,37.86
2019-01-07T06:33:25.401Z,37.38
2019-01-07T06:34:25.379Z,37.48
2019-01-07T06:35:25.440Z,37.48
2019-01-07T06:36:25.349Z,37.29
2019-01-07T06:37:25.326Z,37.29
2019-01-07T06:38:25.308Z,37.19
2019-01-07T06:39:25.287Z,37.29
2019-01-07T06:40:25.275Z,37.19
2019-01-07T06:41:25.256Z,36.82
2019-01-07T06:42:26.039Z,36.63
2019-01-07T06:43:25.224Z,36.72
2019-01-07T06:44:25.201Z,36.35
2019-01-07T06:45:25.185Z,36.54
2019-01-07T06:46:25.166Z,36.82
2019-01-07T06:47:24.902Z,36.15
2019-01-07T06:48:25.135Z,36.25
2019-01-07T06:49:25.113Z,36.27
2019-01-07T06:50:25.098Z,36.35
2019-01-07T06:51:25.080Z,36.44
2019-01-07T06:52:25.066Z,35.96
2019-01-07T06:53:25.048Z,35.96
2019-01-07T06:54:25.032Z,35.96
2019-01-07T06:55:25.008Z,35.87
2019-01-07T06:56:24.994Z,35.96
2019-01-07T06:57:24.974Z,35.96
2019-01-07T06:58:24.962Z,36.06
2019-01-07T06:59:24.943Z,35.87
2019-01-07T07:00:24.926Z,35.98
2019-01-07T07:01:24.907Z,35.87
2019-01-07T07:02:24.641Z,35.68
2019-01-07T07:03:24.872Z,35.68
2019-01-07T07:04:24.854Z,35.79
2019-01-07T07:05:24.844Z,35.6
2019-01-07T07:06:24.818Z,35.68
2019-01-07T07:07:24.803Z,35.68
2019-01-07T07:08:24.785Z,35.7
2019-01-07T07:09:24.765Z,35.6
2019-01-07T07:10:24.751Z,35.7
2019-01-07T07:11:24.486Z,35.77
2019-01-07T07:12:24.714Z,35.77
2019-01-07T07:13:24.695Z,35.68
2019-01-07T07:14:24.436Z,35.58
2019-01-07T07:15:24.663Z,35.6
2019-01-07T07:16:24.651Z,34.94
2019-01-07T07:17:24.626Z,35.39
2019-01-07T07:18:24.609Z,35.39
2019-01-07T07:19:24.589Z,35.58
2019-01-07T07:20:24.573Z,35.02
2019-01-07T07:21:24.561Z,35.02
2019-01-07T07:22:24.538Z,35.03
2019-01-07T07:23:26.598Z,35.41
2019-01-07T07:24:24.508Z,35.49
2019-01-07T07:25:24.489Z,35.41
2019-01-07T07:26:24.472Z,35.51
2019-01-07T07:27:24.456Z,35.3
2019-01-07T07:28:24.439Z,35.58
2019-01-07T07:29:24.421Z,35.87
2019-01-07T07:30:30.414Z,35.89
2019-01-07T07:31:24.384Z,35.87
2019-01-07T07:32:24.368Z,36.06
2019-01-07T07:33:24.351Z,35.87
2019-01-07T07:34:24.084Z,35.96
2019-01-07T07:35:24.325Z,35.89
2019-01-07T07:36:24.303Z,35.98
2019-01-07T07:37:24.280Z,35.77
2019-01-07T07:38:24.262Z,36.08
2019-01-07T07:39:24.317Z,36.08
2019-01-07T07:40:24.229Z,35.96
2019-01-07T07:41:24.212Z,35.87
2019-01-07T07:42:24.196Z,36.08
2019-01-07T07:43:24.173Z,36.08
2019-01-07T07:44:24.163Z,35.98
2019-01-07T07:45:24.144Z,35.98
2019-01-07T07:46:24.125Z,35.89
2019-01-07T07:47:24.108Z,36.08
2019-01-07T07:48:24.091Z,36.08
2019-01-07T07:49:24.072Z,36.08
2019-01-07T07:50:24.053Z,35.89
2019-01-07T07:51:24.037Z,35.79
2019-01-07T07:52:24.020Z,36.17
2019-01-07T07:53:24.004Z,36.46
2019-01-07T07:54:23.987Z,36.27
2019-01-07T07:55:23.973Z,36.27
2019-01-07T07:56:23.951Z,36.27
2019-01-07T07:57:23.935Z,36.17
2019-01-07T07:58:23.916Z,36.74
2019-01-07T07:59:23.901Z,36.55
2019-01-07T08:00:23.884Z,36.55
2019-01-07T08:01:23.866Z,36.46
2019-01-07T08:02:23.845Z,36.74
2019-01-07T08:03:23.832Z,36.83
2019-01-07T08:04:23.814Z,37.4
2019-01-07T08:05:23.802Z,37.59
2019-01-07T08:06:23.783Z,37.88
2019-01-07T08:07:23.763Z,38.26
2019-01-07T08:08:23.746Z,38.64
2019-01-07T08:09:23.815Z,39.29
2019-01-07T08:10:23.708Z,39.39
2019-01-07T08:11:23.950Z,39.84
2019-01-07T08:12:23.679Z,40.34
2019-01-07T08:13:23.660Z,40.34
2019-01-07T08:14:23.645Z,40.79
2019-01-07T08:15:23.623Z,40.41
2019-01-07T08:16:23.608Z,40.7
2019-01-07T08:17:23.590Z,41.17
2019-01-07T08:18:23.576Z,41.47
2019-01-07T08:19:23.307Z,41.95
2019-01-07T08:20:23.536Z,41.55
2019-01-07T08:21:23.521Z,41.95
2019-01-07T08:22:23.504Z,42.3
2019-01-07T08:23:23.241Z,42.21
2019-01-07T08:24:23.467Z,42.9
2019-01-07T08:25:23.450Z,42.97
2019-01-07T08:26:23.431Z,42.99
2019-01-07T08:27:23.420Z,43.37
2019-01-07T08:28:23.399Z,43.16
2019-01-07T08:29:23.383Z,42.99
2019-01-07T08:30:23.366Z,42.9
2019-01-07T08:31:23.349Z,43.08
2019-01-07T08:32:23.330Z,43.37
2019-01-07T08:33:23.394Z,43.75
2019-01-07T08:34:23.294Z,44.03
2019-01-07T08:35:23.279Z,43.94
2019-01-07T08:36:23.259Z,44.13
2019-01-07T08:37:23.245Z,44.03
2019-01-07T08:38:23.225Z,44.22
2019-01-07T08:39:23.207Z,44.22
2019-01-07T08:40:23.193Z,44.41
2019-01-07T08:41:23.174Z,44.51
2019-01-07T08:42:23.156Z,44.89
2019-01-07T08:43:23.137Z,44.67
2019-01-07T08:44:23.124Z,44.98
2019-01-07T08:45:23.106Z,44.89
2019-01-07T08:46:23.088Z,45.45
2019-01-07T08:47:23.066Z,45.62
2019-01-07T08:48:23.052Z,46.4
2019-01-07T08:49:23.037Z,46.21
2019-01-07T08:50:23.020Z,46.59
2019-01-07T08:51:23.000Z,46.28
2019-01-07T08:52:22.986Z,46.66
2019-01-07T08:53:22.719Z,46.78
2019-01-07T08:54:28.040Z,46.59
2019-01-07T08:55:22.930Z,46.59
2019-01-07T08:56:22.916Z,46.88
2019-01-07T08:57:22.897Z,47.82
2019-01-07T08:58:22.876Z,47.91
2019-01-07T08:59:22.614Z,47.53
2019-01-07T09:00:22.845Z,48.01
2019-01-07T09:01:22.825Z,47.82
2019-01-07T09:02:22.812Z,47.82
2019-01-07T09:03:22.544Z,47.63
2019-01-07T09:04:22.775Z,47.82
2019-01-07T09:05:22.760Z,47.91
2019-01-07T09:06:22.742Z,47.53
2019-01-07T09:07:22.729Z,46.97
2019-01-07T09:08:22.705Z,47.25
2019-01-07T09:09:22.689Z,47.34
2019-01-07T09:10:22.670Z,47.63
2019-01-07T09:11:22.656Z,48.1
2019-01-07T09:12:22.638Z,48.2
2019-01-07T09:13:22.621Z,47.91
2019-01-07T09:14:22.602Z,47.91
2019-01-07T09:15:22.588Z,47.91
2019-01-07T09:16:22.568Z,48.49
2019-01-07T09:17:22.554Z,48.96
2019-01-07T09:18:22.535Z,49.71
2019-01-07T09:19:22.518Z,50.28
2019-01-07T09:20:22.506Z,50.85
2019-01-07T09:21:22.482Z,50.76
2019-01-07T09:22:22.466Z,51.14
2019-01-07T09:23:22.445Z,52.27
2019-01-07T09:24:22.431Z,53.41
2019-01-07T09:25:22.413Z,53.59
2019-01-07T09:26:22.399Z,54.45
2019-01-07T09:27:22.382Z,54.93
2019-01-07T09:28:22.366Z,55.77
2019-01-07T09:29:22.347Z,56.15
2019-01-07T09:30:22.329Z,56.15
2019-01-07T09:31:22.361Z,56.34
2019-01-07T09:32:22.294Z,56.91
2019-01-07T09:33:22.365Z,57.2
2019-01-07T09:34:22.366Z,57.39
2019-01-07T09:35:22.467Z,57.29
2019-01-07T09:36:22.431Z,57.64
2019-01-07T09:37:22.329Z,57.01
2019-01-07T09:38:22.346Z,57.39
2019-01-07T09:39:22.393Z,57.67
2019-01-07T09:40:22.187Z,57.48
2019-01-07T09:41:22.389Z,57.2
2019-01-07T09:42:22.268Z,57.1
2019-01-07T09:43:22.391Z,57.01
2019-01-07T09:44:22.195Z,56.25
2019-01-07T09:45:22.195Z,56.44
2019-01-07T09:46:22.162Z,56.91
2019-01-07T09:47:22.097Z,56.25
2019-01-07T09:48:21.774Z,56.53
2019-01-07T09:49:22.111Z,56.06
2019-01-07T09:50:22.299Z,56.15
2019-01-07T09:51:21.967Z,55.49
2019-01-07T09:52:21.948Z,56.15
2019-01-07T09:53:21.933Z,55.87
2019-01-07T09:54:21.916Z,56.06
2019-01-07T09:55:21.899Z,56.06
2019-01-07T09:56:21.880Z,55.68
2019-01-07T09:57:21.865Z,55.96
2019-01-07T09:58:21.849Z,56.34
2019-01-07T09:59:21.833Z,56.53
2019-01-07T10:00:21.817Z,57.2
2019-01-07T10:01:21.796Z,57.95
2019-01-07T10:02:21.777Z,57.39
2019-01-07T10:03:21.759Z,58.05
2019-01-07T10:04:21.743Z,58.81
2019-01-07T10:05:21.727Z,59.47
2019-01-07T10:06:21.712Z,60.13
2019-01-07T10:07:21.697Z,59.66
2019-01-07T10:08:21.675Z,59.28
2019-01-07T10:09:21.658Z,59.09
2019-01-07T10:10:21.640Z,59.09
2019-01-07T10:11:21.627Z,59.56
2019-01-07T10:12:21.607Z,59.94
2019-01-07T10:13:21.588Z,59.94
2019-01-07T10:14:21.578Z,59.66
2019-01-07T10:15:21.966Z,59.56
2019-01-07T10:16:21.542Z,58.9
2019-01-07T10:17:21.525Z,59.09
2019-01-07T10:18:21.501Z,58.9
2019-01-07T10:19:21.490Z,58.9
2019-01-07T10:20:21.473Z,58.52
2019-01-07T10:21:21.206Z,58.81
2019-01-07T10:22:21.437Z,59.19
2019-01-07T10:23:21.420Z,58.9
2019-01-07T10:24:21.405Z,59.56
2019-01-07T10:25:21.456Z,59.75
2019-01-07T10:26:21.373Z,60.22
2019-01-07T10:27:21.106Z,60.99
2019-01-07T10:28:21.330Z,61.18
2019-01-07T10:29:21.316Z,61.93
2019-01-07T10:30:21.322Z,61.74
2019-01-07T10:31:21.283Z,61.36
2019-01-07T10:32:21.265Z,61.18
2019-01-07T10:33:21.247Z,60.89
2019-01-07T10:34:21.228Z,60.22
2019-01-07T10:35:21.221Z,59.56
2019-01-07T10:36:21.198Z,59.09
2019-01-07T10:37:21.179Z,58.9
2019-01-07T10:38:20.930Z,58.33
2019-01-07T10:39:21.143Z,58.14
2019-01-07T10:40:20.882Z,57.76
2019-01-07T10:41:21.112Z,57.76
2019-01-07T10:42:21.093Z,56.91
2019-01-07T10:43:21.073Z,57.1
2019-01-07T10:44:21.059Z,56.25
2019-01-07T10:45:21.039Z,55.58
2019-01-07T10:46:21.025Z,55.87
2019-01-07T10:47:20.758Z,55.77
2019-01-07T10:48:20.992Z,55.21
2019-01-07T10:49:21.000Z,56.06
2019-01-07T10:50:20.956Z,56.25
2019-01-07T10:51:20.944Z,55.58
2019-01-07T10:52:20.919Z,55.21
2019-01-07T10:53:20.901Z,55.4
2019-01-07T10:54:20.643Z,55.49
2019-01-07T10:55:20.621Z,55.87
2019-01-07T10:56:20.855Z,56.53
2019-01-07T10:57:20.832Z,57.39
2019-01-07T10:58:20.816Z,57.1
2019-01-07T10:59:20.803Z,56.34
2019-01-07T11:00:20.783Z,56.63
2019-01-07T11:01:20.766Z,56.34
2019-01-07T11:02:20.753Z,56.53
2019-01-07T11:03:20.732Z,57.2
2019-01-07T11:04:20.717Z,57.2
2019-01-07T11:05:20.714Z,57.48
2019-01-07T11:06:20.679Z,58.33
2019-01-07T11:07:20.668Z,58.62
2019-01-07T11:08:20.648Z,59.09
2019-01-07T11:09:20.628Z,58.33
2019-01-07T11:10:20.618Z,58.33
2019-01-07T11:11:20.596Z,58.24
2019-01-07T11:12:20.580Z,58.14
2019-01-07T11:13:20.563Z,57.57
2019-01-07T11:14:20.543Z,57.39
2019-01-07T11:15:20.534Z,58.14
2019-01-07T11:16:20.508Z,58.62
2019-01-07T11:17:20.490Z,58.81
2019-01-07T11:18:20.478Z,60.32
2019-01-07T11:19:20.508Z,61.08
2019-01-07T11:20:20.600Z,61.36
2019-01-07T11:21:20.427Z,60.99
2019-01-07T11:22:20.406Z,61.08
2019-01-07T11:23:20.389Z,61.08
2019-01-07T11:24:20.373Z,60.99
2019-01-07T11:25:20.352Z,61.27
2019-01-07T11:26:20.341Z,61.36
2019-01-07T11:27:20.322Z,61.27
2019-01-07T11:28:20.306Z,60.89
2019-01-07T11:29:20.288Z,60.99
2019-01-07T11:30:20.272Z,60.89
2019-01-07T11:31:20.253Z,60.41
2019-01-07T11:32:20.235Z,60.41
2019-01-07T11:33:20.215Z,60.8
2019-01-07T11:34:20.226Z,61.46
2019-01-07T11:35:19.935Z,61.36
2019-01-07T11:36:20.164Z,60.99
2019-01-07T11:37:20.147Z,60.22
2019-01-07T11:38:20.133Z,60.99
2019-01-07T11:39:20.116Z,60.61
2019-01-07T11:40:20.100Z,60.7
2019-01-07T11:41:20.080Z,61.27
2019-01-07T11:42:20.063Z,61.36
2019-01-07T11:43:20.047Z,61.93
2019-01-07T11:44:19.783Z,62.31
2019-01-07T11:45:20.088Z,62.02
2019-01-07T11:46:19.999Z,62.59
2019-01-07T11:47:20.061Z,62.5
2019-01-07T11:48:19.968Z,62.69
2019-01-07T11:49:19.952Z,62.31
2019-01-07T11:50:19.935Z,62.31
2019-01-07T11:51:19.664Z,61.74
2019-01-07T11:52:19.896Z,61.18
2019-01-07T11:53:19.882Z,61.83
2019-01-07T11:54:19.861Z,61.93
2019-01-07T11:55:19.846Z,61.55
2019-01-07T11:56:19.827Z,61.74
2019-01-07T11:57:19.816Z,61.83
2019-01-07T11:58:19.796Z,61.93
2019-01-07T11:59:20.297Z,61.83
2019-01-07T12:00:19.761Z,61.74
2019-01-07T12:01:19.743Z,61.46
2019-01-07T12:02:23.434Z,61.74
2019-01-07T12:03:19.708Z,61.83
2019-01-07T12:04:19.440Z,62.31
2019-01-07T12:05:19.677Z,62.69
2019-01-07T12:06:19.657Z,62.78
2019-01-07T12:07:19.637Z,62.78
2019-01-07T12:08:19.622Z,62.4
2019-01-07T12:09:19.427Z,62.78
2019-01-07T12:10:19.338Z,62.88
2019-01-07T12:11:19.571Z,62.69
2019-01-07T12:12:19.554Z,62.4
2019-01-07T12:13:19.543Z,61.36
2019-01-07T12:14:24.531Z,61.83
2019-01-07T12:15:19.256Z,60.61
2019-01-07T12:16:19.492Z,60.03
2019-01-07T12:17:19.471Z,59.75
2019-01-07T12:18:19.452Z,58.9
2019-01-07T12:19:19.435Z,59.38
2019-01-07T12:20:19.418Z,58.71
2019-01-07T12:21:19.546Z,58.62
2019-01-07T12:22:19.381Z,58.05
2019-01-07T12:23:19.368Z,58.05
2019-01-07T12:24:19.347Z,57.57
2019-01-07T12:25:24.793Z,57.67
2019-01-07T12:26:19.315Z,57.86
2019-01-07T12:27:19.320Z,58.05
2019-01-07T12:28:19.279Z,58.43
2019-01-07T12:29:20.377Z,58.52
2019-01-07T12:30:19.246Z,58.52
2019-01-07T12:31:19.245Z,58.14
2019-01-07T12:32:19.238Z,58.14
2019-01-07T12:33:19.261Z,57.48
2019-01-07T12:34:19.197Z,57.67
2019-01-07T12:35:19.239Z,57.76
2019-01-07T12:36:19.183Z,57.39
2019-01-07T12:37:19.194Z,57.76
2019-01-07T12:38:19.107Z,57.57
2019-01-07T12:39:19.187Z,57.01
2019-01-07T12:40:19.129Z,57.2
2019-01-07T12:41:19.103Z,56.25
2019-01-07T12:42:19.083Z,56.15
2019-01-07T12:43:19.031Z,55.49
2019-01-07T12:44:19.021Z,55.58
2019-01-07T12:45:18.987Z,55.4
2019-01-07T12:46:18.982Z,54.74
2019-01-07T12:47:19.010Z,54.64
2019-01-07T12:48:18.689Z,53.97
2019-01-07T12:49:18.950Z,53.78
2019-01-07T12:50:18.905Z,53.31
2019-01-07T12:51:18.890Z,53.22
2019-01-07T12:52:18.868Z,53.5
2019-01-07T12:53:18.846Z,53.41
2019-01-07T12:54:18.833Z,53.03